Flight Track Log - Related Links

Times and Time Zones

All times are in EDT time to prevent confusion due to time zone crossing. See the N583NW flight status page for this flight to view local times or setup timezone preferences in your user account.

Time Position Orientation Groundspeed Altitude Reporting Facility
EDT Latitude Longitude Course Direction KTS MPH feet Rate Location/Type
Sat 06:05:38 PM 26.0750 -80.1297 63° Northeast 180 207 1,100  Level Miami Center
Sat 06:07:03 PM 26.1081 -80.0567 328° Northwest 241 277 3,600 2,219 Climbing Miami Center
Sat 06:08:04 PM 26.1697 -80.1000 314° West 284 327 6,500 2,773 Climbing Miami Center
Sat 06:09:15 PM 26.2369 -80.1781 313° West 273 314 9,700 2,153 Climbing Miami Center
Sat 06:10:15 PM 26.2978 -80.2517 329° Northwest 305 351 11,200 1,350 Climbing Miami Center
Sat 06:11:15 PM 26.3739 -80.3025 337° Northwest 344 396 12,400 1,700 Climbing Miami Center
Sat 06:12:15 PM 26.4833 -80.3544 337° Northwest 373 429 14,600 2,100 Climbing Miami Center
Sat 06:13:15 PM 26.5744 -80.3967 337° Northwest 390 449 16,600 2,000 Climbing Miami Center
Sat 06:14:15 PM 26.6878 -80.4511 338° Northwest 397 457 18,600 2,000 Climbing Miami Center
Sat 06:15:15 PM 26.7953 -80.4989 337° Northwest 402 463 20,600 1,900 Climbing Miami Center
Sat 06:16:15 PM 26.8983 -80.5486 336° Northwest 402 463 22,400 1,550 Climbing Miami Center
Sat 06:17:15 PM 27.0036 -80.6008 338° Northwest 407 468 23,700 2,000 Climbing Miami Center
Sat 06:18:15 PM 27.1047 -80.6461 336° Northwest 407 468 26,400 1,700 Climbing Miami Center
Sat 06:19:15 PM 27.2017 -80.6936 338° Northwest 393 452 27,100 500 Climbing Miami Center
Sat 06:20:15 PM 27.3089 -80.7414 336° Northwest 394 453 27,400 350 Climbing Miami Center
Sat 06:21:15 PM 27.4161 -80.7942 337° Northwest 405 466 27,800 450 Climbing Miami Center
Sat 06:22:15 PM 27.5333 -80.8497 338° Northwest 431 496 28,300 600 Climbing Miami Center
Sat 06:23:15 PM 27.6550 -80.9056 337° Northwest 455 524 29,000 900 Climbing Miami Center
Sat 06:24:15 PM 27.7767 -80.9639 336° Northwest 460 529 30,100 1,300 Climbing Miami Center
Sat 06:25:15 PM 27.8939 -81.0222 337° Northwest 465 535 31,600 1,000 Climbing Miami Center
Sat 06:26:15 PM 28.0175 -81.0808 336° Northwest 465 535 32,100 500 Climbing Miami Center
Sat 06:27:15 PM 28.1244 -81.1342 337° Northwest 472 543 32,600 823 Climbing Miami Center
Sat 06:29:10 PM 28.3775 -81.2575 337° Northwest 489 563 34,500 823 Climbing Jacksonville Center
Sat 06:30:10 PM 28.4992 -81.3169 342° North 480 552 35,000 250 Climbing Jacksonville Center
Sat 06:31:10 PM 28.6269 -81.3647 343° North 480 552 35,000  Level Jacksonville Center
Sat 06:32:10 PM 28.7592 -81.4100 345° North 480 552 35,000  Level Jacksonville Center
Sat 06:33:10 PM 28.8889 -81.4508 344° North 486 559 35,000  Level Jacksonville Center
Sat 06:34:10 PM 29.0208 -81.4939 344° North 486 559 35,000  Level Jacksonville Center
Sat 06:35:10 PM 29.1508 -81.5372 343° North 480 552 35,000  Level Jacksonville Center
Sat 06:36:10 PM 29.2722 -81.5808 345° North 474 545 35,000  Level Jacksonville Center
Sat 06:37:10 PM 29.3958 -81.6197 345° North 462 532 35,000  Level Jacksonville Center
Sat 06:38:10 PM 29.5194 -81.6586 343° North 462 532 35,000  Level Jacksonville Center
Sat 06:39:10 PM 29.6408 -81.7003 343° North 462 532 35,000  Level Jacksonville Center
Sat 06:40:10 PM 29.7603 -81.7417 344° North 462 532 35,000  Level Jacksonville Center
Sat 06:41:10 PM 29.8797 -81.7811 343° North 462 532 35,000  Level Jacksonville Center
Sat 06:42:10 PM 30.0011 -81.8228 346° North 456 525 35,000  Level Jacksonville Center
Sat 06:43:10 PM 30.1225 -81.8575 349° North 456 525 35,000  Level Jacksonville Center
Sat 06:44:10 PM 30.2481 -81.8850 North 456 525 35,000  Level Jacksonville Center
Sat 06:45:10 PM 30.3753 -81.8669 North 449 517 35,000  Level Jacksonville Center
Sat 06:46:10 PM 30.5003 -81.8486 North 460 529 35,000  Level Jacksonville Center
Sat 06:47:10 PM 30.6150 -81.8353 North 466 536 35,000  Level Jacksonville Center
Sat 06:48:10 PM 30.7422 -81.8144 358° North 461 531 35,000  Level Jacksonville Center
Sat 06:49:10 PM 30.8675 -81.8206 334° Northwest 456 525 35,000  Level Jacksonville Center
Sat 06:50:10 PM 30.9767 -81.8822 332° Northwest 434 499 35,000  Level Jacksonville Center
Sat 06:51:10 PM 31.0856 -81.9489 332° Northwest 434 499 35,000  Level Jacksonville Center
Sat 06:52:10 PM 31.1947 -82.0158 335° Northwest 434 499 35,000  Level Jacksonville Center
Sat 06:53:10 PM 31.3036 -82.0756 333° Northwest 434 499 35,000  Level Jacksonville Center
Sat 06:54:10 PM 31.4106 -82.1403 334° Northwest 434 499 35,000  Level Jacksonville Center
Sat 06:55:10 PM 31.5194 -82.2028 333° Northwest 434 499 35,000  Level Jacksonville Center
Sat 06:56:52 PM 31.7033 -82.3131 334° Northwest 433 498 35,000  Level Atlanta Center
Sat 06:57:52 PM 31.8125 -82.3769 333° Northwest 433 498 35,000  Level Atlanta Center
Sat 06:58:52 PM 31.9219 -82.4433 333° Northwest 433 498 35,000  Level Atlanta Center
Sat 06:59:52 PM 32.0292 -82.5078 333° Northwest 433 498 35,000 -100 Level Atlanta Center
Sat 07:00:52 PM 32.1386 -82.5744 333° Northwest 433 498 34,800 -550 Descending Atlanta Center
Sat 07:01:52 PM 32.2458 -82.6392 333° Northwest 433 498 33,900 -1,500 Descending Atlanta Center
Sat 07:02:52 PM 32.3531 -82.7039 333° Northwest 433 498 31,800 -2,100 Descending Atlanta Center
Sat 07:03:52 PM 32.4600 -82.7686 327° Northwest 433 498 29,700 -2,250 Descending Atlanta Center
Sat 07:04:52 PM 32.5717 -82.8533 313° West 433 498 27,300 -2,150 Descending Atlanta Center
Sat 07:05:52 PM 32.6433 -82.9461 307° West 418 481 25,400 -2,100 Descending Atlanta Center
Sat 07:06:52 PM 32.7111 -83.0514 309° West 418 481 23,100 -2,150 Descending Atlanta Center
Sat 07:07:52 PM 32.7786 -83.1519 308° West 408 470 21,100 -1,850 Descending Atlanta Center
Sat 07:08:52 PM 32.8356 -83.2378 308° West 386 444 19,400 -1,600 Descending Atlanta Center
Sat 07:09:52 PM 32.9008 -83.3386 310° West 370 426 17,900 -1,500 Descending Atlanta Center
Sat 07:10:52 PM 32.9556 -83.4175 308° West 334 384 16,400 -1,500 Descending Atlanta Center
Sat 07:11:52 PM 33.0083 -83.4989 309° West 323 372 14,900 -1,450 Descending Atlanta Center
Sat 07:12:52 PM 33.0628 -83.5778 308° West 311 358 13,500 -1,300 Descending Atlanta Center
Sat 07:13:52 PM 33.1153 -83.6569 308° West 311 358 12,300 -750 Descending Atlanta Center
Sat 07:14:52 PM 33.1719 -83.7436 309° West 305 351 12,000 -150 Descending Atlanta Center
Sat 07:15:52 PM 33.2242 -83.8203 309° West 299 344 12,000 -600 Level Atlanta Center
Sat 07:16:52 PM 33.2764 -83.8972 307° West 299 344 10,800 -1,350 Descending Atlanta Center
Sat 07:17:52 PM 33.3247 -83.9742 315° West 294 338 9,300 -1,300 Descending Atlanta Center
Sat 07:18:52 PM 33.3747 -84.0339 343° North 284 327 8,200 -1,250 Descending Atlanta Center
Sat 07:19:52 PM 33.4478 -84.0611 343° North 258 297 6,800 -1,300 Descending Atlanta Center
Sat 07:20:52 PM 33.5167 -84.0861 343° North 258 297 5,600 -1,100 Descending Atlanta Center
Sat 07:21:52 PM 33.5856 -84.1111 305° West 258 297 4,600 -800 Descending Atlanta Center
Sat 07:22:52 PM 33.6167 -84.1636 270° West 214 246 4,000 -449 Descending Atlanta Center
Sat 07:24:19 PM 33.6167 -84.2500 270° West 192 221 3,500 -553 Descending Atlanta TRACON
Sat 07:25:13 PM 33.6167 -84.3167 270° West 193 222 2,700 -842 Descending Atlanta TRACON
Sat 07:26:13 PM 33.6167 -84.3667 270° West 150 173 1,900 -800 Descending Atlanta TRACON

Login

Don't have an account? Register now (free) for customized features, flight alerts, and more!